Philadelphia, Pennsylvania
Traffic Map
Current Weather Conditions
Philadelphia, Pennsylvania
Scattered Clouds
Scattered Clouds
92°
Feels Like: 97°
Wind Chill: 92° Ceiling: Unl
Heat Index: 97° Visibility: 10mi
Dew Point: 69° Wind: 12mph
Humidity: 47% Direction: 280° (W)
Pressure: 29.89in Gusts: 21mph
Raw Report DataKPHL 231654Z 28010G18KT 10SM SCT049 33/21 A2989 RMK AO2 SLP121 T03330206 $
Traffic Incident Summary
Active as of:
Severity:
Category:
InformationThere was an issue retrieving the traffic information for this location. Please try a different location or try again shortly.
Advertisements
Track Severe Weather on mobile